createdAt,value
2022-08-03T00:01:26.523Z,101325.06
2022-08-03T00:03:53.245Z,101322.97
2022-08-03T00:06:21.109Z,101321.09
2022-08-03T00:08:48.041Z,101319.59
2022-08-03T00:11:14.639Z,101323.81
2022-08-03T00:13:41.255Z,101305.56
2022-08-03T00:16:07.975Z,101311.63
2022-08-03T00:18:34.590Z,101314.81
2022-08-03T00:21:01.193Z,101307.25
2022-08-03T00:23:33.132Z,101311.03
2022-08-03T00:26:14.438Z,101298.63
2022-08-03T00:28:41.324Z,101298.84
2022-08-03T00:31:08.297Z,101300.94
2022-08-03T00:33:58.221Z,101302.84
2022-08-03T00:36:26.735Z,101296.56
2022-08-03T00:38:53.332Z,101293.84
2022-08-03T00:41:19.920Z,101296.34
2022-08-03T00:43:47.514Z,101289.00
2022-08-03T00:46:18.997Z,101297.16
2022-08-03T00:48:53.185Z,101294.44
2022-08-03T00:51:21.717Z,101286.28
2022-08-03T00:53:49.406Z,101293.81
2022-08-03T00:56:16.733Z,101292.38
2022-08-03T00:58:47.152Z,101291.72
2022-08-03T01:01:14.708Z,101288.78
2022-08-03T01:03:41.769Z,101294.22
2022-08-03T01:06:20.121Z,101295.94
2022-08-03T01:08:57.822Z,101293.84
2022-08-03T01:11:34.733Z,101298.03
2022-08-03T01:14:19.015Z,101289.66
2022-08-03T01:17:10.605Z,101288.41
2022-08-03T01:20:02.531Z,101291.31
2022-08-03T01:23:13.995Z,101287.13
2022-08-03T01:26:09.393Z,101290.91
2022-08-03T01:29:00.823Z,101290.06
2022-08-03T01:32:59.421Z,101282.13
2022-08-03T01:34:41.247Z,101280.66
2022-08-03T01:37:10.951Z,101267.47
2022-08-03T01:39:39.776Z,101268.72
2022-08-03T01:42:09.218Z,101265.75
2022-08-03T01:44:40.743Z,101259.69
2022-08-03T01:47:08.859Z,101265.13
2022-08-03T01:49:45.515Z,101262.00
2022-08-03T01:52:17.373Z,101266.84
2022-08-03T01:54:46.521Z,101262.00
2022-08-03T01:57:15.182Z,101267.88
2022-08-03T01:59:43.162Z,101266.00
2022-08-03T02:02:29.213Z,101261.38
2022-08-03T02:05:01.599Z,101267.03
2022-08-03T02:07:30.453Z,101256.56
2022-08-03T02:10:00.304Z,101256.56
2022-08-03T02:12:28.917Z,101265.38
2022-08-03T02:14:57.902Z,101256.34
2022-08-03T02:17:39.228Z,101254.25
2022-08-03T02:20:09.841Z,101257.81
2022-08-03T02:22:40.475Z,101254.28
2022-08-03T02:25:12.130Z,101257.41
2022-08-03T02:27:44.180Z,101253.63
2022-08-03T02:30:13.503Z,101256.56
2022-08-03T02:32:42.703Z,101256.56
2022-08-03T02:35:15.367Z,101253.84
2022-08-03T02:37:49.762Z,101249.81
2022-08-03T02:40:19.087Z,101256.53
2022-08-03T02:42:47.384Z,101251.34
2022-08-03T02:45:17.158Z,101256.16
2022-08-03T02:47:54.082Z,101250.06
2022-08-03T02:50:23.099Z,101255.75
2022-08-03T02:52:51.771Z,101252.34
2022-08-03T02:55:21.995Z,101252.19
2022-08-03T02:57:50.257Z,101251.34
2022-08-03T03:00:27.652Z,101244.78
2022-08-03T03:02:58.195Z,101244.16
2022-08-03T03:05:54.712Z,101247.28
2022-08-03T03:08:20.668Z,101240.59
2022-08-03T03:10:53.380Z,101245.22
2022-08-03T03:13:23.415Z,101243.75
2022-08-03T03:15:50.922Z,101244.38
2022-08-03T03:18:22.242Z,101246.50
2022-08-03T03:20:51.623Z,101261.97
2022-08-03T03:23:20.184Z,101259.88
2022-08-03T03:25:47.361Z,101258.41
2022-08-03T03:28:14.755Z,101255.69
2022-08-03T03:30:41.932Z,101249.63
2022-08-03T03:33:08.800Z,101258.59
2022-08-03T03:35:38.853Z,101259.00
2022-08-03T03:38:07.130Z,101256.50
2022-08-03T03:40:36.176Z,101259.84
2022-08-03T03:43:03.940Z,101262.38
2022-08-03T03:45:31.764Z,101252.53
2022-08-03T03:48:00.522Z,101257.38
2022-08-03T03:50:28.209Z,101258.41
2022-08-03T03:52:54.917Z,101252.78
2022-08-03T03:55:21.558Z,101255.66
2022-08-03T03:57:48.220Z,101260.72
2022-08-03T04:00:16.922Z,101261.31
2022-08-03T04:02:44.450Z,101260.09
2022-08-03T04:05:30.317Z,101252.94
2022-08-03T04:08:44.750Z,101258.59
2022-08-03T04:11:50.063Z,101257.16
2022-08-03T04:14:27.071Z,101261.56
2022-08-03T04:17:04.810Z,101261.56
2022-08-03T04:19:34.396Z,101265.72
2022-08-03T04:22:05.815Z,101262.38
2022-08-03T04:24:44.755Z,101261.75
2022-08-03T04:27:14.180Z,101270.97
2022-08-03T04:29:48.533Z,101272.00
2022-08-03T04:32:17.020Z,101275.34
2022-08-03T04:34:44.370Z,101281.84
2022-08-03T04:37:39.418Z,101286.88
2022-08-03T04:40:13.494Z,101278.69
2022-08-03T04:42:41.960Z,101283.94
2022-08-03T04:45:12.517Z,101287.53
2022-08-03T04:47:40.090Z,101289.00
2022-08-03T04:50:12.182Z,101293.38
2022-08-03T04:52:40.036Z,101294.66
2022-08-03T04:55:07.108Z,101296.09
2022-08-03T04:57:33.763Z,101294.63
2022-08-03T05:00:03.092Z,101285.81
2022-08-03T05:02:31.267Z,101282.03
2022-08-03T05:04:58.927Z,101286.88
2022-08-03T05:07:25.696Z,101284.56
2022-08-03T05:10:01.676Z,101290.84
2022-08-03T05:12:32.870Z,101290.66
2022-08-03T05:15:00.010Z,101289.19
2022-08-03T05:17:26.694Z,101290.06
2022-08-03T05:19:53.587Z,101282.50
2022-08-03T05:22:20.735Z,101287.13
2022-08-03T05:24:47.549Z,101282.09
2022-08-03T05:27:19.207Z,101290.88
2022-08-03T05:29:47.423Z,101292.53
2022-08-03T05:32:14.490Z,101293.38
2022-08-03T05:34:41.119Z,101291.69
2022-08-03T05:37:07.962Z,101290.59
2022-08-03T05:39:35.341Z,101287.88
2022-08-03T05:42:02.505Z,101299.38
2022-08-03T05:44:29.192Z,101294.78
2022-08-03T05:46:57.823Z,101294.63
2022-08-03T05:49:24.555Z,101298.63
2022-08-03T05:51:59.940Z,101301.75
2022-08-03T05:54:56.604Z,101296.50
2022-08-03T05:57:25.220Z,101298.38
2022-08-03T05:59:57.783Z,101295.00
2022-08-03T06:02:27.334Z,101296.72
2022-08-03T06:04:54.326Z,101296.88
2022-08-03T06:07:21.228Z,101294.97
2022-08-03T06:10:33.191Z,101307.97
2022-08-03T06:12:36.197Z,101311.38
2022-08-03T06:15:04.881Z,101299.25
2022-08-03T06:17:37.349Z,101297.84
2022-08-03T06:20:05.857Z,101293.84
2022-08-03T06:22:32.460Z,101301.59
2022-08-03T06:25:04.240Z,101302.22
2022-08-03T06:27:37.359Z,101294.44
2022-08-03T06:30:05.404Z,101296.13
2022-08-03T06:32:32.288Z,101302.19
2022-08-03T06:34:59.042Z,101300.09
2022-08-03T06:37:27.104Z,101302.81
2022-08-03T06:39:54.623Z,101300.09
2022-08-03T06:42:22.633Z,101300.31
2022-08-03T06:44:49.486Z,101302.41
2022-08-03T06:47:16.154Z,101301.13
2022-08-03T06:49:42.851Z,101291.50
2022-08-03T06:52:09.505Z,101303.03
2022-08-03T06:54:36.326Z,101292.97
2022-08-03T06:57:03.775Z,101297.13
2022-08-03T07:00:09.402Z,101307.81
2022-08-03T07:02:19.608Z,101300.91
2022-08-03T07:04:48.153Z,101308.03
2022-08-03T07:07:14.792Z,101305.09
2022-08-03T07:09:41.728Z,101305.94
2022-08-03T07:12:08.845Z,101305.53
2022-08-03T07:14:35.449Z,101304.47
2022-08-03T07:17:11.089Z,101300.91
2022-08-03T07:19:38.533Z,101302.38
2022-08-03T07:22:05.229Z,101298.59
2022-08-03T07:24:31.845Z,101296.28
2022-08-03T07:26:58.445Z,101296.91
2022-08-03T07:29:25.093Z,101297.13
2022-08-03T07:31:51.803Z,101296.06
2022-08-03T07:34:18.431Z,101298.16
2022-08-03T07:36:45.310Z,101299.81
2022-08-03T07:39:15.795Z,101292.91
2022-08-03T07:41:45.329Z,101290.41
2022-08-03T07:44:12.179Z,101296.25
2022-08-03T07:46:38.962Z,101287.00
2022-08-03T07:49:05.765Z,101293.53
2022-08-03T07:51:32.485Z,101291.41
2022-08-03T07:54:00.807Z,101295.38
2022-08-03T07:56:28.281Z,101294.53
2022-08-03T07:58:55.704Z,101303.38
2022-08-03T08:01:22.894Z,101300.41
2022-08-03T08:03:52.981Z,101301.25
2022-08-03T08:06:21.150Z,101300.63
2022-08-03T08:08:48.239Z,101296.19
2022-08-03T08:11:15.017Z,101293.47
2022-08-03T08:13:41.653Z,101293.69
2022-08-03T08:16:08.295Z,101292.03
2022-08-03T08:18:34.920Z,101290.78
2022-08-03T08:21:03.309Z,101291.59
2022-08-03T08:23:41.811Z,101292.00
2022-08-03T08:26:09.683Z,101285.94
2022-08-03T08:28:36.285Z,101284.44
2022-08-03T08:31:02.910Z,101280.88
2022-08-03T08:33:48.036Z,101278.53
2022-08-03T08:36:16.353Z,101282.72
2022-08-03T08:38:44.946Z,101282.09
2022-08-03T08:41:13.067Z,101284.41
2022-08-03T08:43:39.983Z,101286.09
2022-08-03T08:46:08.511Z,101285.44
2022-08-03T08:48:39.476Z,101281.69
2022-08-03T08:51:06.929Z,101275.59
2022-08-03T08:53:36.966Z,101290.25
2022-08-03T08:56:05.401Z,101279.97
2022-08-03T08:58:38.703Z,101279.09
2022-08-03T09:01:05.887Z,101285.38
2022-08-03T09:03:36.052Z,101289.38
2022-08-03T09:06:03.844Z,101277.41
2022-08-03T09:08:32.104Z,101278.41
2022-08-03T09:10:59.692Z,101274.81
2022-08-03T09:13:26.539Z,101276.47
2022-08-03T09:16:25.682Z,101279.00
2022-08-03T09:18:54.421Z,101276.47
2022-08-03T09:21:38.034Z,101276.06
2022-08-03T09:24:13.107Z,101277.53
2022-08-03T09:26:51.960Z,101268.69
2022-08-03T09:29:21.016Z,101264.50
2022-08-03T09:31:47.626Z,101266.34
2022-08-03T09:34:16.030Z,101265.06
2022-08-03T09:36:47.720Z,101269.25
2022-08-03T09:39:19.749Z,101257.53
2022-08-03T09:42:25.042Z,101268.31
2022-08-03T09:44:52.453Z,101255.94
2022-08-03T09:47:34.165Z,101268.34
2022-08-03T09:50:08.915Z,101262.28
2022-08-03T09:52:52.148Z,101256.78
2022-08-03T09:56:34.644Z,101253.16
2022-08-03T09:58:11.651Z,101257.53
2022-08-03T10:00:56.938Z,101248.28
2022-08-03T10:03:25.055Z,101240.09
2022-08-03T10:05:56.076Z,101250.28
2022-08-03T10:08:26.347Z,101249.38
2022-08-03T10:10:58.549Z,101249.56
2022-08-03T10:13:25.246Z,101244.88
2022-08-03T10:16:21.428Z,101242.53
2022-08-03T10:18:38.554Z,101241.53
2022-08-03T10:21:08.841Z,101241.47
2022-08-03T10:23:38.142Z,101241.06
2022-08-03T10:26:07.227Z,101230.03
2022-08-03T10:28:41.556Z,101230.81
2022-08-03T10:31:13.130Z,101228.84
2022-08-03T10:33:50.076Z,101228.66
2022-08-03T10:36:22.096Z,101225.03
2022-08-03T10:38:53.005Z,101216.84
2022-08-03T10:41:30.271Z,101219.69
2022-08-03T10:44:02.980Z,101213.16
2022-08-03T10:46:29.614Z,101217.72
2022-08-03T10:48:57.168Z,101212.56
2022-08-03T10:51:24.727Z,101216.94
2022-08-03T10:53:54.844Z,101208.16
2022-08-03T10:56:53.403Z,101205.50
2022-08-03T10:59:47.236Z,101204.34
2022-08-03T11:02:15.319Z,101205.84
2022-08-03T11:04:42.846Z,101206.34
2022-08-03T11:07:20.697Z,101204.44
2022-08-03T11:09:55.787Z,101214.06
2022-08-03T11:12:33.746Z,101210.84
2022-08-03T11:15:03.752Z,101208.34
2022-08-03T11:17:31.870Z,101205.31
2022-08-03T11:19:58.820Z,101200.75
2022-08-03T11:22:28.210Z,101195.63
2022-08-03T11:24:58.187Z,101193.03
2022-08-03T11:27:27.552Z,101194.19
2022-08-03T11:30:06.498Z,101195.06
2022-08-03T11:32:46.839Z,101186.28
2022-08-03T11:35:19.413Z,101191.56
2022-08-03T11:38:01.569Z,101184.81
2022-08-03T11:40:48.869Z,101185.28
2022-08-03T11:43:31.477Z,101182.16
2022-08-03T11:46:12.771Z,101179.22
2022-08-03T11:48:45.195Z,101173.94
2022-08-03T11:51:23.324Z,101175.34
2022-08-03T11:53:58.163Z,101174.00
2022-08-03T11:56:26.060Z,101174.25
2022-08-03T11:59:01.386Z,101170.91
2022-08-03T12:01:42.366Z,101172.53
2022-08-03T12:04:10.383Z,101168.25
2022-08-03T12:06:55.268Z,101168.63
2022-08-03T12:09:22.262Z,101162.53
2022-08-03T12:11:56.149Z,101158.44
2022-08-03T12:14:48.600Z,101156.34
2022-08-03T12:17:15.079Z,101158.72
2022-08-03T12:19:43.174Z,101162.72
2022-08-03T12:22:09.803Z,101154.09
2022-08-03T12:24:46.387Z,101146.75
2022-08-03T12:27:23.224Z,101141.44
2022-08-03T12:29:58.660Z,101151.13
2022-08-03T12:32:27.264Z,101142.97
2022-08-03T12:34:55.439Z,101140.69
2022-08-03T12:37:29.818Z,101142.91
2022-08-03T12:40:07.703Z,101132.34
2022-08-03T12:42:38.729Z,101133.81
2022-08-03T12:45:20.681Z,101131.47
2022-08-03T12:47:55.472Z,101131.25
2022-08-03T12:50:32.461Z,101125.44
2022-08-03T12:53:01.019Z,101134.97
2022-08-03T12:55:56.961Z,101129.72
2022-08-03T12:58:35.538Z,101127.53
2022-08-03T13:01:09.688Z,101122.31
2022-08-03T13:03:50.238Z,101128.06
2022-08-03T13:06:24.319Z,101125.44
2022-08-03T13:09:03.701Z,101122.38
2022-08-03T13:11:57.966Z,101123.94
2022-08-03T13:14:20.179Z,101120.66
2022-08-03T13:16:50.090Z,101122.16
2022-08-03T13:19:16.709Z,101122.53
2022-08-03T13:21:53.462Z,101116.06
2022-08-03T13:24:31.730Z,101114.16
2022-08-03T13:26:59.255Z,101114.38
2022-08-03T13:29:25.956Z,101113.50
2022-08-03T13:31:52.717Z,101112.94
2022-08-03T13:34:23.232Z,101115.34
2022-08-03T13:37:09.363Z,101109.47
2022-08-03T13:39:58.222Z,101110.84
2022-08-03T13:42:23.120Z,101113.53
2022-08-03T13:44:49.988Z,101113.25
2022-08-03T13:47:17.246Z,101107.53
2022-08-03T13:49:54.086Z,101109.72
2022-08-03T13:52:28.141Z,101099.53
2022-08-03T13:54:54.827Z,101093.84
2022-08-03T13:58:06.645Z,101106.59
2022-08-03T14:00:08.977Z,101089.28
2022-08-03T14:02:35.700Z,101096.09
2022-08-03T14:05:02.409Z,101090.59
2022-08-03T14:07:29.018Z,101090.53
2022-08-03T14:09:55.589Z,101092.88
2022-08-03T14:12:22.232Z,101089.56
2022-08-03T14:14:48.807Z,101081.94
2022-08-03T14:17:16.340Z,101081.84
2022-08-03T14:19:52.436Z,101081.94
2022-08-03T14:22:21.049Z,101085.28
2022-08-03T14:24:47.793Z,101080.53
2022-08-03T14:27:16.462Z,101075.84
2022-08-03T14:29:43.154Z,101079.69
2022-08-03T14:32:13.305Z,101075.97
2022-08-03T14:34:41.003Z,101084.44
2022-08-03T14:37:07.864Z,101080.97
2022-08-03T14:42:21.585Z,101075.31
2022-08-03T14:44:48.239Z,101079.75
2022-08-03T14:47:15.375Z,101077.53
2022-08-03T14:50:37.640Z,101076.38
2022-08-03T14:52:28.947Z,101082.50
2022-08-03T14:54:55.577Z,101062.59
2022-08-03T14:57:22.483Z,101068.63
2022-08-03T14:59:55.714Z,101071.66
2022-08-03T15:02:25.349Z,101066.31
2022-08-03T15:04:52.810Z,101069.47
2022-08-03T15:07:20.868Z,101064.53
2022-08-03T15:09:48.057Z,101066.72
2022-08-03T15:12:14.833Z,101057.75
2022-08-03T15:14:41.584Z,101057.34
2022-08-03T15:17:08.327Z,101055.41
2022-08-03T15:20:00.301Z,101052.81
2022-08-03T15:22:25.366Z,101049.81
2022-08-03T15:26:02.219Z,101045.09
2022-08-03T15:28:03.888Z,101049.97
2022-08-03T15:30:33.873Z,101053.81
2022-08-03T15:33:00.483Z,101046.63
2022-08-03T15:35:28.887Z,101041.47
2022-08-03T15:37:55.572Z,101043.84
2022-08-03T15:40:22.353Z,101038.00
2022-08-03T15:42:49.036Z,101039.94
2022-08-03T15:45:20.608Z,101043.56
2022-08-03T15:47:47.766Z,101038.38
2022-08-03T15:50:14.903Z,101037.22
2022-08-03T15:52:41.583Z,101043.16
2022-08-03T15:55:08.855Z,101035.78
2022-08-03T15:59:07.627Z,101039.38
2022-08-03T16:00:33.421Z,101021.81
2022-08-03T16:03:01.069Z,101036.97
2022-08-03T16:05:28.307Z,101034.88
2022-08-03T16:08:02.930Z,101030.75
2022-08-03T16:10:32.267Z,101030.81
2022-08-03T16:13:00.220Z,101027.56
2022-08-03T16:15:27.625Z,101026.91
2022-08-03T16:17:54.325Z,101027.19
2022-08-03T16:20:31.140Z,101027.84
2022-08-03T16:23:09.187Z,101024.88
2022-08-03T16:25:40.335Z,101017.03
2022-08-03T16:28:13.185Z,101020.22
2022-08-03T16:30:42.262Z,101014.41
2022-08-03T16:33:09.663Z,101012.56
2022-08-03T16:35:36.419Z,101026.41
2022-08-03T16:38:09.248Z,101022.13
2022-08-03T16:40:36.874Z,101024.75
2022-08-03T16:43:19.004Z,101019.66
2022-08-03T16:45:47.308Z,101024.47
2022-08-03T16:48:15.431Z,101032.34
2022-08-03T16:50:42.204Z,101026.03
2022-08-03T16:53:15.559Z,101029.53
2022-08-03T16:55:53.572Z,101024.94
2022-08-03T16:58:42.664Z,101029.38
2022-08-03T17:01:22.216Z,101026.44
2022-08-03T17:04:04.713Z,101033.59
2022-08-03T17:06:35.749Z,101034.31
2022-08-03T17:09:09.923Z,101029.44
2022-08-03T17:11:47.890Z,101034.22
2022-08-03T17:14:22.499Z,101029.25
2022-08-03T17:16:52.023Z,101033.88
2022-08-03T17:19:23.189Z,101036.38
2022-08-03T17:22:04.309Z,101030.91
2022-08-03T17:24:41.355Z,101029.69
2022-08-03T17:28:50.297Z,101031.03
2022-08-03T17:30:11.908Z,101044.50
2022-08-03T17:32:42.864Z,101031.19
2022-08-03T17:35:20.913Z,101040.09
2022-08-03T17:37:58.446Z,101048.47
2022-08-03T17:40:31.609Z,101046.81
2022-08-03T17:43:00.712Z,101050.72
2022-08-03T17:45:52.011Z,101050.97
2022-08-03T17:48:18.648Z,101051.19
2022-08-03T17:50:55.992Z,101048.09
2022-08-03T17:53:30.641Z,101046.41
2022-08-03T17:56:44.394Z,101045.59
2022-08-03T17:59:51.431Z,101047.13
2022-08-03T18:02:38.022Z,101044.06
2022-08-03T18:05:16.808Z,101038.69
2022-08-03T18:08:01.508Z,101042.38
2022-08-03T18:10:35.089Z,101043.59
2022-08-03T18:13:10.562Z,101044.91
2022-08-03T18:15:42.682Z,101054.91
2022-08-03T18:18:12.522Z,101060.63
2022-08-03T18:20:42.014Z,101061.22
2022-08-03T18:23:25.185Z,101061.13
2022-08-03T18:26:01.469Z,101055.16
2022-08-03T18:28:29.132Z,101056.09
2022-08-03T18:30:57.210Z,101060.88
2022-08-03T18:34:17.262Z,101053.16
2022-08-03T18:36:21.737Z,101057.16
2022-08-03T18:38:58.710Z,101061.38
2022-08-03T18:41:33.586Z,101063.97
2022-08-03T18:44:07.028Z,101056.22
2022-08-03T18:47:07.487Z,101056.69
2022-08-03T18:50:13.484Z,101060.50
2022-08-03T18:52:53.019Z,101050.25
2022-08-03T18:55:32.906Z,101063.13
2022-08-03T18:58:17.921Z,101067.50
2022-08-03T19:01:03.546Z,101068.47
2022-08-03T19:06:27.729Z,101070.38
2022-08-03T19:09:01.711Z,101067.03
2022-08-03T19:12:10.968Z,101067.50
2022-08-03T19:14:39.230Z,101072.50
2022-08-03T19:17:11.299Z,101066.44
2022-08-03T19:19:44.120Z,101073.22
2022-08-03T19:22:16.219Z,101064.53
2022-08-03T19:24:46.942Z,101076.56
2022-08-03T19:27:16.068Z,101081.19
2022-08-03T19:29:59.048Z,101075.38
2022-08-03T19:32:29.012Z,101083.34
2022-08-03T19:34:57.329Z,101076.22
2022-08-03T19:37:38.731Z,101073.72
2022-08-03T19:40:14.233Z,101074.31
2022-08-03T19:42:49.156Z,101066.09
2022-08-03T19:46:05.474Z,101074.88
2022-08-03T19:48:17.592Z,101070.72
2022-08-03T19:50:44.978Z,101069.06
2022-08-03T19:53:12.817Z,101077.28
2022-08-03T19:55:49.054Z,101076.91
2022-08-03T19:58:17.842Z,101072.97
2022-08-03T20:00:55.583Z,101072.88
2022-08-03T20:03:24.905Z,101079.78
2022-08-03T20:05:52.267Z,101077.97
2022-08-03T20:08:22.139Z,101069.28
2022-08-03T20:10:49.660Z,101075.13
2022-08-03T20:13:19.424Z,101073.22
2022-08-03T20:15:46.782Z,101076.44
2022-08-03T20:18:16.778Z,101070.13
2022-08-03T20:20:48.089Z,101068.69
2022-08-03T20:23:18.614Z,101069.16
2022-08-03T20:25:57.347Z,101079.25
2022-08-03T20:28:50.196Z,101071.88
2022-08-03T20:31:21.621Z,101070.81
2022-08-03T20:33:50.582Z,101077.84
2022-08-03T20:36:18.731Z,101074.47
2022-08-03T20:38:47.882Z,101073.41
2022-08-03T20:41:16.293Z,101076.13
2022-08-03T20:43:43.468Z,101074.09
2022-08-03T20:46:31.052Z,101074.94
2022-08-03T20:49:03.957Z,101080.03
2022-08-03T20:51:52.584Z,101080.63
2022-08-03T20:54:28.588Z,101081.69
2022-08-03T20:56:57.830Z,101079.69
2022-08-03T20:59:28.804Z,101075.03
2022-08-03T21:01:57.104Z,101077.19
2022-08-03T21:04:24.177Z,101080.16
2022-08-03T21:06:57.591Z,101082.25
2022-08-03T21:09:39.937Z,101091.09
2022-08-03T21:12:15.482Z,101078.09
2022-08-03T21:13:01.259Z,101070.75
2022-08-03T21:15:01.543Z,101078.94
2022-08-03T21:17:41.880Z,101072.63
2022-08-03T21:20:11.745Z,101081.91
2022-08-03T21:22:42.390Z,101073.94
2022-08-03T21:25:10.314Z,101080.25
2022-08-03T21:27:37.305Z,101075.84
2022-08-03T21:30:09.236Z,101070.00
2022-08-03T21:32:40.071Z,101065.81
2022-08-03T21:35:09.547Z,101072.75
2022-08-03T21:37:37.577Z,101076.06
2022-08-03T21:40:04.502Z,101066.44
2022-08-03T21:42:31.083Z,101074.41
2022-08-03T21:44:57.684Z,101075.47
2022-08-03T21:47:25.899Z,101065.38
2022-08-03T21:50:08.663Z,101073.19
2022-08-03T21:52:43.415Z,101064.78
2022-08-03T21:55:20.332Z,101074.03
2022-08-03T21:57:52.119Z,101072.34
2022-08-03T22:00:21.383Z,101069.84
2022-08-03T22:02:55.373Z,101067.13
2022-08-03T22:05:42.423Z,101069.84
2022-08-03T22:08:09.737Z,101069.03
2022-08-03T22:10:36.855Z,101074.72
2022-08-03T22:13:03.640Z,101073.91
2022-08-03T22:15:30.993Z,101077.47
2022-08-03T22:17:59.162Z,101075.81
2022-08-03T22:20:26.205Z,101073.06
2022-08-03T22:22:56.941Z,101070.34
2022-08-03T22:25:35.868Z,101075.81
2022-08-03T22:28:09.036Z,101068.06
2022-08-03T22:30:36.301Z,101075.44
2022-08-03T22:33:05.549Z,101079.25
2022-08-03T22:35:47.173Z,101072.94
2022-08-03T22:38:14.551Z,101075.06
2022-08-03T22:40:41.389Z,101074.22
2022-08-03T22:43:08.413Z,101071.72
2022-08-03T22:46:08.486Z,101072.78
2022-08-03T22:48:22.398Z,101076.81
2022-08-03T22:50:49.768Z,101075.16
2022-08-03T22:53:18.795Z,101071.59
2022-08-03T22:55:47.931Z,101080.63
2022-08-03T22:58:17.622Z,101082.53
2022-08-03T23:00:56.192Z,101084.88
2022-08-03T23:04:00.105Z,101073.56
2022-08-03T23:06:21.599Z,101068.34
2022-08-03T23:08:50.270Z,101074.63
2022-08-03T23:11:18.249Z,101078.91
2022-08-03T23:13:46.949Z,101073.44
2022-08-03T23:16:15.492Z,101069.84
2022-08-03T23:18:56.266Z,101071.13
2022-08-03T23:21:53.822Z,101075.56
2022-08-03T23:24:29.353Z,101072.41
2022-08-03T23:26:57.065Z,101072.66
2022-08-03T23:29:23.862Z,101069.69
2022-08-03T23:31:53.639Z,101078.97
2022-08-03T23:34:40.490Z,101070.53
2022-08-03T23:37:07.174Z,101075.63
2022-08-03T23:39:35.033Z,101072.88
2022-08-03T23:42:03.022Z,101071.00
2022-08-03T23:44:31.302Z,101067.19
2022-08-03T23:46:58.012Z,101068.72
2022-08-03T23:49:24.720Z,101078.34
2022-08-03T23:52:03.006Z,101069.91
2022-08-03T23:55:23.494Z,101065.75
2022-08-03T23:58:03.869Z,101068.72
